sensor_id;sensor_type;location;lat;lon;timestamp;P1;durP1;ratioP1;P2;durP2;ratioP2
13704;SDS011;6924;52.122;9.952;2023-05-27T00:00:00;5.50;;;2.03;;
13704;SDS011;6924;52.122;9.952;2023-05-27T00:02:27;3.50;;;1.87;;
13704;SDS011;6924;52.122;9.952;2023-05-27T00:04:53;6.83;;;2.13;;
13704;SDS011;6924;52.122;9.952;2023-05-27T00:07:21;5.37;;;2.57;;
13704;SDS011;6924;52.122;9.952;2023-05-27T00:09:48;3.10;;;2.40;;
13704;SDS011;6924;52.122;9.952;2023-05-27T00:12:14;7.60;;;3.07;;
13704;SDS011;6924;52.122;9.952;2023-05-27T00:14:41;2.47;;;1.97;;
13704;SDS011;6924;52.122;9.952;2023-05-27T00:17:07;4.20;;;1.87;;
13704;SDS011;6924;52.122;9.952;2023-05-27T00:19:38;4.80;;;2.03;;
13704;SDS011;6924;52.122;9.952;2023-05-27T00:22:05;8.10;;;2.77;;
13704;SDS011;6924;52.122;9.952;2023-05-27T00:24:33;5.67;;;2.20;;
13704;SDS011;6924;52.122;9.952;2023-05-27T00:27:00;2.57;;;2.13;;
13704;SDS011;6924;52.122;9.952;2023-05-27T00:29:27;2.30;;;1.73;;
13704;SDS011;6924;52.122;9.952;2023-05-27T00:31:54;3.93;;;2.10;;
13704;SDS011;6924;52.122;9.952;2023-05-27T00:34:20;4.77;;;1.80;;
13704;SDS011;6924;52.122;9.952;2023-05-27T00:36:47;3.87;;;1.97;;
13704;SDS011;6924;52.122;9.952;2023-05-27T00:39:13;3.07;;;1.83;;
13704;SDS011;6924;52.122;9.952;2023-05-27T00:41:42;4.63;;;2.50;;
13704;SDS011;6924;52.122;9.952;2023-05-27T00:44:13;4.43;;;1.80;;
13704;SDS011;6924;52.122;9.952;2023-05-27T00:46:40;3.73;;;2.30;;
13704;SDS011;6924;52.122;9.952;2023-05-27T00:49:06;1.97;;;1.73;;
13704;SDS011;6924;52.122;9.952;2023-05-27T00:51:34;3.60;;;2.30;;
13704;SDS011;6924;52.122;9.952;2023-05-27T00:54:01;4.57;;;2.33;;
13704;SDS011;6924;52.122;9.952;2023-05-27T00:56:27;4.93;;;2.10;;
13704;SDS011;6924;52.122;9.952;2023-05-27T00:58:55;8.73;;;2.87;;
13704;SDS011;6924;52.122;9.952;2023-05-27T01:01:22;5.33;;;2.30;;
13704;SDS011;6924;52.122;9.952;2023-05-27T01:03:50;4.50;;;2.20;;
13704;SDS011;6924;52.122;9.952;2023-05-27T01:06:19;4.60;;;2.17;;
13704;SDS011;6924;52.122;9.952;2023-05-27T01:08:55;2.67;;;2.13;;
13704;SDS011;6924;52.122;9.952;2023-05-27T01:11:31;3.80;;;2.20;;
13704;SDS011;6924;52.122;9.952;2023-05-27T01:14:10;3.63;;;2.53;;
13704;SDS011;6924;52.122;9.952;2023-05-27T01:16:41;4.83;;;1.90;;
13704;SDS011;6924;52.122;9.952;2023-05-27T01:19:12;3.43;;;2.07;;
13704;SDS011;6924;52.122;9.952;2023-05-27T01:21:41;3.93;;;2.20;;
13704;SDS011;6924;52.122;9.952;2023-05-27T01:24:11;4.87;;;1.90;;
13704;SDS011;6924;52.122;9.952;2023-05-27T01:26:38;4.93;;;2.27;;
13704;SDS011;6924;52.122;9.952;2023-05-27T01:29:05;2.77;;;1.70;;
13704;SDS011;6924;52.122;9.952;2023-05-27T01:31:33;3.40;;;1.77;;
13704;SDS011;6924;52.122;9.952;2023-05-27T01:34:03;4.73;;;2.17;;
13704;SDS011;6924;52.122;9.952;2023-05-27T01:36:37;3.93;;;2.07;;
13704;SDS011;6924;52.122;9.952;2023-05-27T01:39:09;2.93;;;2.03;;
13704;SDS011;6924;52.122;9.952;2023-05-27T01:41:38;2.37;;;1.97;;
13704;SDS011;6924;52.122;9.952;2023-05-27T01:44:06;3.50;;;2.17;;
13704;SDS011;6924;52.122;9.952;2023-05-27T01:46:34;4.63;;;2.50;;
13704;SDS011;6924;52.122;9.952;2023-05-27T01:49:01;6.13;;;2.30;;
13704;SDS011;6924;52.122;9.952;2023-05-27T01:51:27;3.03;;;1.73;;
13704;SDS011;6924;52.122;9.952;2023-05-27T01:53:54;3.20;;;1.60;;
13704;SDS011;6924;52.122;9.952;2023-05-27T01:56:20;3.33;;;1.63;;
13704;SDS011;6924;52.122;9.952;2023-05-27T01:58:48;2.13;;;1.40;;
13704;SDS011;6924;52.122;9.952;2023-05-27T02:01:15;3.07;;;2.30;;
13704;SDS011;6924;52.122;9.952;2023-05-27T02:03:41;2.93;;;2.10;;
13704;SDS011;6924;52.122;9.952;2023-05-27T02:06:07;2.73;;;1.77;;
13704;SDS011;6924;52.122;9.952;2023-05-27T02:08:34;3.77;;;2.50;;
13704;SDS011;6924;52.122;9.952;2023-05-27T02:11:00;2.50;;;2.17;;
13704;SDS011;6924;52.122;9.952;2023-05-27T02:13:27;3.03;;;1.87;;
13704;SDS011;6924;52.122;9.952;2023-05-27T02:15:55;3.30;;;1.93;;
13704;SDS011;6924;52.122;9.952;2023-05-27T02:18:21;3.57;;;2.20;;
13704;SDS011;6924;52.122;9.952;2023-05-27T02:20:48;3.17;;;2.20;;
13704;SDS011;6924;52.122;9.952;2023-05-27T02:23:14;4.53;;;2.17;;
13704;SDS011;6924;52.122;9.952;2023-05-27T02:25:41;4.37;;;2.40;;
13704;SDS011;6924;52.122;9.952;2023-05-27T02:28:07;2.73;;;2.00;;
13704;SDS011;6924;52.122;9.952;2023-05-27T02:30:34;7.23;;;2.20;;
13704;SDS011;6924;52.122;9.952;2023-05-27T02:33:01;5.67;;;2.77;;
13704;SDS011;6924;52.122;9.952;2023-05-27T02:35:28;3.23;;;2.03;;
13704;SDS011;6924;52.122;9.952;2023-05-27T02:37:54;5.23;;;2.00;;
13704;SDS011;6924;52.122;9.952;2023-05-27T02:40:24;5.73;;;2.40;;
13704;SDS011;6924;52.122;9.952;2023-05-27T02:42:51;3.73;;;1.87;;
13704;SDS011;6924;52.122;9.952;2023-05-27T02:45:17;6.33;;;2.33;;
13704;SDS011;6924;52.122;9.952;2023-05-27T02:47:44;2.90;;;1.97;;
13704;SDS011;6924;52.122;9.952;2023-05-27T02:50:12;3.67;;;2.70;;
13704;SDS011;6924;52.122;9.952;2023-05-27T02:52:38;3.27;;;2.57;;
13704;SDS011;6924;52.122;9.952;2023-05-27T02:55:05;6.00;;;2.73;;
13704;SDS011;6924;52.122;9.952;2023-05-27T02:57:33;4.33;;;1.87;;
13704;SDS011;6924;52.122;9.952;2023-05-27T03:00:00;2.90;;;2.10;;
13704;SDS011;6924;52.122;9.952;2023-05-27T03:02:26;3.83;;;1.90;;
13704;SDS011;6924;52.122;9.952;2023-05-27T03:04:52;3.87;;;2.83;;
13704;SDS011;6924;52.122;9.952;2023-05-27T03:07:21;3.60;;;2.03;;
13704;SDS011;6924;52.122;9.952;2023-05-27T03:09:48;2.00;;;1.80;;
13704;SDS011;6924;52.122;9.952;2023-05-27T03:12:14;3.07;;;2.37;;
13704;SDS011;6924;52.122;9.952;2023-05-27T03:14:41;5.27;;;2.10;;
13704;SDS011;6924;52.122;9.952;2023-05-27T03:17:09;2.63;;;1.80;;
13704;SDS011;6924;52.122;9.952;2023-05-27T03:19:35;3.40;;;1.97;;
13704;SDS011;6924;52.122;9.952;2023-05-27T03:22:02;2.00;;;1.80;;
13704;SDS011;6924;52.122;9.952;2023-05-27T03:24:29;4.43;;;2.07;;
13704;SDS011;6924;52.122;9.952;2023-05-27T03:26:56;2.70;;;2.10;;
13704;SDS011;6924;52.122;9.952;2023-05-27T03:29:22;2.50;;;2.20;;
13704;SDS011;6924;52.122;9.952;2023-05-27T03:31:51;4.13;;;1.90;;
13704;SDS011;6924;52.122;9.952;2023-05-27T03:34:18;4.83;;;2.10;;
13704;SDS011;6924;52.122;9.952;2023-05-27T03:36:44;5.17;;;2.60;;
13704;SDS011;6924;52.122;9.952;2023-05-27T03:39:11;2.37;;;2.17;;
13704;SDS011;6924;52.122;9.952;2023-05-27T03:41:39;3.40;;;2.10;;
13704;SDS011;6924;52.122;9.952;2023-05-27T03:44:07;3.83;;;2.37;;
13704;SDS011;6924;52.122;9.952;2023-05-27T03:46:34;2.47;;;2.07;;
13704;SDS011;6924;52.122;9.952;2023-05-27T03:49:00;3.53;;;2.50;;
13704;SDS011;6924;52.122;9.952;2023-05-27T03:51:27;2.77;;;2.03;;
13704;SDS011;6924;52.122;9.952;2023-05-27T03:53:54;5.30;;;3.03;;
13704;SDS011;6924;52.122;9.952;2023-05-27T03:56:20;2.23;;;1.80;;
13704;SDS011;6924;52.122;9.952;2023-05-27T03:58:49;3.93;;;2.67;;
13704;SDS011;6924;52.122;9.952;2023-05-27T04:01:15;3.23;;;2.27;;
13704;SDS011;6924;52.122;9.952;2023-05-27T04:03:42;2.47;;;2.10;;
13704;SDS011;6924;52.122;9.952;2023-05-27T04:06:09;4.87;;;2.23;;
13704;SDS011;6924;52.122;9.952;2023-05-27T04:08:36;3.83;;;1.90;;
13704;SDS011;6924;52.122;9.952;2023-05-27T04:11:02;4.07;;;2.10;;
13704;SDS011;6924;52.122;9.952;2023-05-27T04:13:29;2.80;;;1.57;;
13704;SDS011;6924;52.122;9.952;2023-05-27T04:15:57;3.90;;;2.37;;
13704;SDS011;6924;52.122;9.952;2023-05-27T04:18:25;4.43;;;2.07;;
13704;SDS011;6924;52.122;9.952;2023-05-27T04:20:51;2.60;;;2.03;;
13704;SDS011;6924;52.122;9.952;2023-05-27T04:23:18;2.73;;;1.97;;
13704;SDS011;6924;52.122;9.952;2023-05-27T04:25:44;4.77;;;1.97;;
13704;SDS011;6924;52.122;9.952;2023-05-27T04:28:13;3.70;;;2.33;;
13704;SDS011;6924;52.122;9.952;2023-05-27T04:30:40;3.47;;;1.83;;
13704;SDS011;6924;52.122;9.952;2023-05-27T04:33:08;3.07;;;1.80;;
13704;SDS011;6924;52.122;9.952;2023-05-27T04:35:36;2.70;;;1.93;;
13704;SDS011;6924;52.122;9.952;2023-05-27T04:38:02;2.57;;;1.90;;
13704;SDS011;6924;52.122;9.952;2023-05-27T04:40:28;6.03;;;1.97;;
13704;SDS011;6924;52.122;9.952;2023-05-27T04:42:56;4.23;;;2.33;;
13704;SDS011;6924;52.122;9.952;2023-05-27T04:45:22;3.00;;;2.27;;
13704;SDS011;6924;52.122;9.952;2023-05-27T04:47:51;2.37;;;2.10;;
13704;SDS011;6924;52.122;9.952;2023-05-27T04:50:19;4.17;;;2.73;;
13704;SDS011;6924;52.122;9.952;2023-05-27T04:52:45;3.07;;;2.40;;
13704;SDS011;6924;52.122;9.952;2023-05-27T04:55:12;5.20;;;2.63;;
13704;SDS011;6924;52.122;9.952;2023-05-27T04:57:39;8.30;;;2.53;;
13704;SDS011;6924;52.122;9.952;2023-05-27T05:00:08;2.17;;;1.80;;
13704;SDS011;6924;52.122;9.952;2023-05-27T05:02:48;3.43;;;1.77;;
13704;SDS011;6924;52.122;9.952;2023-05-27T05:05:14;2.30;;;2.10;;
13704;SDS011;6924;52.122;9.952;2023-05-27T05:07:42;3.00;;;2.33;;
13704;SDS011;6924;52.122;9.952;2023-05-27T05:10:09;5.23;;;2.70;;
13704;SDS011;6924;52.122;9.952;2023-05-27T05:12:36;4.30;;;2.33;;
13704;SDS011;6924;52.122;9.952;2023-05-27T05:15:03;2.63;;;2.27;;
13704;SDS011;6924;52.122;9.952;2023-05-27T05:17:30;5.80;;;2.67;;
13704;SDS011;6924;52.122;9.952;2023-05-27T05:19:57;5.37;;;2.23;;
13704;SDS011;6924;52.122;9.952;2023-05-27T05:22:23;4.80;;;2.87;;
13704;SDS011;6924;52.122;9.952;2023-05-27T05:24:52;3.60;;;2.30;;
13704;SDS011;6924;52.122;9.952;2023-05-27T05:27:19;4.37;;;2.60;;
13704;SDS011;6924;52.122;9.952;2023-05-27T05:29:45;2.83;;;2.07;;
13704;SDS011;6924;52.122;9.952;2023-05-27T05:32:11;5.03;;;2.33;;
13704;SDS011;6924;52.122;9.952;2023-05-27T05:34:38;3.10;;;2.57;;
13704;SDS011;6924;52.122;9.952;2023-05-27T05:37:04;5.57;;;2.87;;
13704;SDS011;6924;52.122;9.952;2023-05-27T05:39:31;7.13;;;2.90;;
13704;SDS011;6924;52.122;9.952;2023-05-27T05:41:59;5.93;;;3.70;;
13704;SDS011;6924;52.122;9.952;2023-05-27T05:44:27;3.47;;;2.33;;
13704;SDS011;6924;52.122;9.952;2023-05-27T05:46:54;3.83;;;3.00;;
13704;SDS011;6924;52.122;9.952;2023-05-27T05:49:20;5.23;;;3.00;;
13704;SDS011;6924;52.122;9.952;2023-05-27T05:51:47;5.73;;;3.03;;
13704;SDS011;6924;52.122;9.952;2023-05-27T05:54:13;5.23;;;2.93;;
13704;SDS011;6924;52.122;9.952;2023-05-27T05:56:39;10.13;;;2.70;;
13704;SDS011;6924;52.122;9.952;2023-05-27T05:59:07;8.30;;;3.33;;
13704;SDS011;6924;52.122;9.952;2023-05-27T06:01:33;2.67;;;2.40;;
13704;SDS011;6924;52.122;9.952;2023-05-27T06:04:00;5.70;;;3.13;;
13704;SDS011;6924;52.122;9.952;2023-05-27T06:06:29;4.97;;;3.80;;
13704;SDS011;6924;52.122;9.952;2023-05-27T06:08:55;6.27;;;3.77;;
13704;SDS011;6924;52.122;9.952;2023-05-27T06:11:22;6.97;;;3.73;;
13704;SDS011;6924;52.122;9.952;2023-05-27T06:13:48;5.80;;;3.30;;
13704;SDS011;6924;52.122;9.952;2023-05-27T06:16:16;7.23;;;3.73;;
13704;SDS011;6924;52.122;9.952;2023-05-27T06:18:42;7.43;;;3.33;;
13704;SDS011;6924;52.122;9.952;2023-05-27T06:21:11;7.90;;;3.33;;
13704;SDS011;6924;52.122;9.952;2023-05-27T06:23:37;5.53;;;3.27;;
13704;SDS011;6924;52.122;9.952;2023-05-27T06:26:04;5.23;;;3.77;;
13704;SDS011;6924;52.122;9.952;2023-05-27T06:28:30;9.00;;;3.87;;
13704;SDS011;6924;52.122;9.952;2023-05-27T06:30:56;6.03;;;3.27;;
13704;SDS011;6924;52.122;9.952;2023-05-27T06:33:24;5.50;;;2.97;;
13704;SDS011;6924;52.122;9.952;2023-05-27T06:35:50;8.57;;;3.70;;
13704;SDS011;6924;52.122;9.952;2023-05-27T06:38:17;5.70;;;3.47;;
13704;SDS011;6924;52.122;9.952;2023-05-27T06:40:43;7.07;;;4.03;;
13704;SDS011;6924;52.122;9.952;2023-05-27T06:43:10;7.90;;;4.43;;
13704;SDS011;6924;52.122;9.952;2023-05-27T06:45:36;7.37;;;3.47;;
13704;SDS011;6924;52.122;9.952;2023-05-27T06:48:02;5.10;;;4.33;;
13704;SDS011;6924;52.122;9.952;2023-05-27T06:50:31;6.50;;;3.83;;
13704;SDS011;6924;52.122;9.952;2023-05-27T06:52:57;5.67;;;3.43;;
13704;SDS011;6924;52.122;9.952;2023-05-27T06:55:23;6.07;;;4.10;;
13704;SDS011;6924;52.122;9.952;2023-05-27T06:57:50;8.80;;;4.03;;
13704;SDS011;6924;52.122;9.952;2023-05-27T07:00:17;8.40;;;4.07;;
13704;SDS011;6924;52.122;9.952;2023-05-27T07:02:43;10.53;;;4.37;;
13704;SDS011;6924;52.122;9.952;2023-05-27T07:05:10;7.20;;;3.73;;
13704;SDS011;6924;52.122;9.952;2023-05-27T07:07:38;6.57;;;3.63;;
13704;SDS011;6924;52.122;9.952;2023-05-27T07:10:04;8.13;;;3.93;;
13704;SDS011;6924;52.122;9.952;2023-05-27T07:12:32;5.70;;;3.50;;
13704;SDS011;6924;52.122;9.952;2023-05-27T07:14:58;3.27;;;2.97;;
13704;SDS011;6924;52.122;9.952;2023-05-27T07:17:25;6.87;;;3.43;;
13704;SDS011;6924;52.122;9.952;2023-05-27T07:19:51;10.00;;;4.77;;
13704;SDS011;6924;52.122;9.952;2023-05-27T07:22:17;3.37;;;3.03;;
13704;SDS011;6924;52.122;9.952;2023-05-27T07:24:45;4.47;;;2.53;;
13704;SDS011;6924;52.122;9.952;2023-05-27T07:27:12;7.00;;;3.60;;
13704;SDS011;6924;52.122;9.952;2023-05-27T07:29:38;6.13;;;3.47;;
13704;SDS011;6924;52.122;9.952;2023-05-27T07:32:04;5.20;;;2.93;;
13704;SDS011;6924;52.122;9.952;2023-05-27T07:34:31;5.60;;;3.17;;
13704;SDS011;6924;52.122;9.952;2023-05-27T07:36:58;4.47;;;2.97;;
13704;SDS011;6924;52.122;9.952;2023-05-27T07:39:24;5.27;;;2.70;;
13704;SDS011;6924;52.122;9.952;2023-05-27T07:41:52;6.57;;;2.60;;
13704;SDS011;6924;52.122;9.952;2023-05-27T07:44:18;5.20;;;2.73;;
13704;SDS011;6924;52.122;9.952;2023-05-27T07:46:45;4.57;;;2.30;;
13704;SDS011;6924;52.122;9.952;2023-05-27T07:49:12;5.17;;;2.50;;
13704;SDS011;6924;52.122;9.952;2023-05-27T07:51:39;5.30;;;2.47;;
13704;SDS011;6924;52.122;9.952;2023-05-27T07:54:05;5.97;;;2.97;;
13704;SDS011;6924;52.122;9.952;2023-05-27T07:56:32;4.23;;;2.23;;
13704;SDS011;6924;52.122;9.952;2023-05-27T07:59:00;6.77;;;3.20;;
13704;SDS011;6924;52.122;9.952;2023-05-27T08:01:27;5.77;;;2.50;;
13704;SDS011;6924;52.122;9.952;2023-05-27T08:03:57;4.77;;;2.40;;
13704;SDS011;6924;52.122;9.952;2023-05-27T08:06:23;5.17;;;2.00;;
13704;SDS011;6924;52.122;9.952;2023-05-27T08:08:50;4.40;;;2.13;;
13704;SDS011;6924;52.122;9.952;2023-05-27T08:11:16;5.10;;;2.40;;
13704;SDS011;6924;52.122;9.952;2023-05-27T08:13:42;2.93;;;1.80;;
13704;SDS011;6924;52.122;9.952;2023-05-27T08:16:10;4.60;;;2.10;;
13704;SDS011;6924;52.122;9.952;2023-05-27T08:18:37;3.30;;;1.63;;
13704;SDS011;6924;52.122;9.952;2023-05-27T08:21:06;4.63;;;2.07;;
13704;SDS011;6924;52.122;9.952;2023-05-27T08:23:36;4.53;;;2.30;;
13704;SDS011;6924;52.122;9.952;2023-05-27T08:26:02;3.13;;;1.63;;
13704;SDS011;6924;52.122;9.952;2023-05-27T08:28:28;6.47;;;2.00;;
13704;SDS011;6924;52.122;9.952;2023-05-27T08:30:55;3.77;;;1.97;;
13704;SDS011;6924;52.122;9.952;2023-05-27T08:33:22;3.10;;;1.70;;
13704;SDS011;6924;52.122;9.952;2023-05-27T08:35:49;3.33;;;1.50;;
13704;SDS011;6924;52.122;9.952;2023-05-27T08:38:15;3.17;;;2.27;;
13704;SDS011;6924;52.122;9.952;2023-05-27T08:40:42;4.00;;;2.10;;
13704;SDS011;6924;52.122;9.952;2023-05-27T08:43:08;7.03;;;1.87;;
13704;SDS011;6924;52.122;9.952;2023-05-27T08:45:35;2.90;;;2.30;;
13704;SDS011;6924;52.122;9.952;2023-05-27T08:48:05;4.80;;;2.07;;
13704;SDS011;6924;52.122;9.952;2023-05-27T08:50:35;7.83;;;2.37;;
13704;SDS011;6924;52.122;9.952;2023-05-27T08:53:02;4.47;;;1.87;;
13704;SDS011;6924;52.122;9.952;2023-05-27T08:55:29;3.30;;;1.67;;
13704;SDS011;6924;52.122;9.952;2023-05-27T08:57:57;3.83;;;2.60;;
13704;SDS011;6924;52.122;9.952;2023-05-27T09:00:24;4.27;;;2.90;;
13704;SDS011;6924;52.122;9.952;2023-05-27T09:02:52;6.20;;;2.27;;
13704;SDS011;6924;52.122;9.952;2023-05-27T09:05:21;3.67;;;2.40;;
13704;SDS011;6924;52.122;9.952;2023-05-27T09:07:49;3.13;;;2.27;;
13704;SDS011;6924;52.122;9.952;2023-05-27T09:10:15;3.53;;;2.10;;
13704;SDS011;6924;52.122;9.952;2023-05-27T09:12:42;4.57;;;2.07;;
13704;SDS011;6924;52.122;9.952;2023-05-27T09:15:09;8.00;;;2.77;;
13704;SDS011;6924;52.122;9.952;2023-05-27T09:17:39;3.13;;;1.90;;
13704;SDS011;6924;52.122;9.952;2023-05-27T09:20:06;4.07;;;2.20;;
13704;SDS011;6924;52.122;9.952;2023-05-27T09:22:33;5.73;;;2.07;;
13704;SDS011;6924;52.122;9.952;2023-05-27T09:25:01;3.23;;;2.50;;
13704;SDS011;6924;52.122;9.952;2023-05-27T09:27:28;3.30;;;2.17;;
13704;SDS011;6924;52.122;9.952;2023-05-27T09:29:56;4.40;;;2.30;;
13704;SDS011;6924;52.122;9.952;2023-05-27T09:32:24;3.07;;;2.30;;
13704;SDS011;6924;52.122;9.952;2023-05-27T09:34:52;8.50;;;3.03;;
13704;SDS011;6924;52.122;9.952;2023-05-27T09:37:18;5.47;;;2.40;;
13704;SDS011;6924;52.122;9.952;2023-05-27T09:39:46;3.40;;;2.03;;
13704;SDS011;6924;52.122;9.952;2023-05-27T09:42:14;3.30;;;2.30;;
13704;SDS011;6924;52.122;9.952;2023-05-27T09:44:41;3.43;;;2.40;;
13704;SDS011;6924;52.122;9.952;2023-05-27T09:47:13;3.53;;;2.37;;
13704;SDS011;6924;52.122;9.952;2023-05-27T09:49:43;5.57;;;2.83;;
13704;SDS011;6924;52.122;9.952;2023-05-27T09:52:15;5.30;;;2.47;;
13704;SDS011;6924;52.122;9.952;2023-05-27T09:54:45;2.97;;;2.53;;
13704;SDS011;6924;52.122;9.952;2023-05-27T09:57:12;3.27;;;2.03;;
13704;SDS011;6924;52.122;9.952;2023-05-27T09:59:42;3.57;;;1.90;;
13704;SDS011;6924;52.122;9.952;2023-05-27T10:02:11;2.73;;;1.93;;
13704;SDS011;6924;52.122;9.952;2023-05-27T10:04:41;2.83;;;1.97;;
13704;SDS011;6924;52.122;9.952;2023-05-27T10:07:08;6.80;;;2.70;;
13704;SDS011;6924;52.122;9.952;2023-05-27T10:09:35;4.90;;;1.73;;
13704;SDS011;6924;52.122;9.952;2023-05-27T10:12:03;3.07;;;1.67;;
13704;SDS011;6924;52.122;9.952;2023-05-27T10:14:32;3.77;;;2.17;;
13704;SDS011;6924;52.122;9.952;2023-05-27T10:16:59;4.50;;;2.13;;
13704;SDS011;6924;52.122;9.952;2023-05-27T10:19:26;6.20;;;2.90;;
13704;SDS011;6924;52.122;9.952;2023-05-27T10:21:52;5.20;;;2.30;;
13704;SDS011;6924;52.122;9.952;2023-05-27T10:24:19;3.60;;;2.00;;
13704;SDS011;6924;52.122;9.952;2023-05-27T10:26:59;2.57;;;2.20;;
13704;SDS011;6924;52.122;9.952;2023-05-27T10:29:34;2.83;;;2.03;;
13704;SDS011;6924;52.122;9.952;2023-05-27T10:32:03;4.23;;;2.27;;
13704;SDS011;6924;52.122;9.952;2023-05-27T10:34:33;2.27;;;1.87;;
13704;SDS011;6924;52.122;9.952;2023-05-27T10:37:00;2.83;;;1.83;;
13704;SDS011;6924;52.122;9.952;2023-05-27T10:39:28;3.40;;;1.80;;
13704;SDS011;6924;52.122;9.952;2023-05-27T10:41:56;4.67;;;1.43;;
13704;SDS011;6924;52.122;9.952;2023-05-27T10:44:26;8.93;;;2.23;;
13704;SDS011;6924;52.122;9.952;2023-05-27T10:47:00;2.60;;;1.40;;
13704;SDS011;6924;52.122;9.952;2023-05-27T10:49:27;3.40;;;2.17;;
13704;SDS011;6924;52.122;9.952;2023-05-27T10:52:00;4.77;;;2.10;;
13704;SDS011;6924;52.122;9.952;2023-05-27T10:54:35;3.63;;;1.80;;
13704;SDS011;6924;52.122;9.952;2023-05-27T10:57:02;2.60;;;1.40;;
13704;SDS011;6924;52.122;9.952;2023-05-27T10:59:34;4.30;;;1.83;;
13704;SDS011;6924;52.122;9.952;2023-05-27T11:02:07;3.27;;;2.10;;
13704;SDS011;6924;52.122;9.952;2023-05-27T11:04:34;5.17;;;2.10;;
13704;SDS011;6924;52.122;9.952;2023-05-27T11:07:01;3.00;;;1.63;;
13704;SDS011;6924;52.122;9.952;2023-05-27T11:09:28;4.17;;;2.10;;
13704;SDS011;6924;52.122;9.952;2023-05-27T11:11:55;3.87;;;1.67;;
13704;SDS011;6924;52.122;9.952;2023-05-27T11:14:22;3.70;;;1.50;;
13704;SDS011;6924;52.122;9.952;2023-05-27T11:16:49;3.93;;;1.53;;
13704;SDS011;6924;52.122;9.952;2023-05-27T11:19:18;4.57;;;1.60;;
13704;SDS011;6924;52.122;9.952;2023-05-27T11:21:46;3.97;;;1.90;;
13704;SDS011;6924;52.122;9.952;2023-05-27T11:24:14;2.83;;;1.73;;
13704;SDS011;6924;52.122;9.952;2023-05-27T11:26:42;2.93;;;1.80;;
13704;SDS011;6924;52.122;9.952;2023-05-27T11:29:10;4.77;;;1.93;;
13704;SDS011;6924;52.122;9.952;2023-05-27T11:31:36;2.87;;;1.97;;
13704;SDS011;6924;52.122;9.952;2023-05-27T11:34:10;1.80;;;1.40;;
13704;SDS011;6924;52.122;9.952;2023-05-27T11:36:40;5.97;;;1.80;;
13704;SDS011;6924;52.122;9.952;2023-05-27T11:39:10;3.33;;;1.37;;
13704;SDS011;6924;52.122;9.952;2023-05-27T11:41:46;2.30;;;1.77;;
13704;SDS011;6924;52.122;9.952;2023-05-27T11:44:14;4.10;;;2.00;;
13704;SDS011;6924;52.122;9.952;2023-05-27T11:46:41;3.17;;;1.70;;
13704;SDS011;6924;52.122;9.952;2023-05-27T11:49:09;2.33;;;1.37;;
13704;SDS011;6924;52.122;9.952;2023-05-27T11:51:37;2.33;;;1.43;;
13704;SDS011;6924;52.122;9.952;2023-05-27T11:54:07;4.17;;;1.87;;
13704;SDS011;6924;52.122;9.952;2023-05-27T11:56:41;2.97;;;1.50;;
13704;SDS011;6924;52.122;9.952;2023-05-27T11:59:08;4.97;;;2.27;;
13704;SDS011;6924;52.122;9.952;2023-05-27T12:01:38;2.40;;;1.50;;
13704;SDS011;6924;52.122;9.952;2023-05-27T12:04:18;2.33;;;1.33;;
13704;SDS011;6924;52.122;9.952;2023-05-27T12:06:47;3.47;;;1.70;;
13704;SDS011;6924;52.122;9.952;2023-05-27T12:09:15;2.87;;;1.60;;
13704;SDS011;6924;52.122;9.952;2023-05-27T12:11:41;4.20;;;1.70;;
13704;SDS011;6924;52.122;9.952;2023-05-27T12:14:08;5.07;;;1.67;;
13704;SDS011;6924;52.122;9.952;2023-05-27T12:16:35;2.77;;;2.23;;
13704;SDS011;6924;52.122;9.952;2023-05-27T12:19:01;3.17;;;1.37;;
13704;SDS011;6924;52.122;9.952;2023-05-27T12:21:28;3.10;;;1.80;;
13704;SDS011;6924;52.122;9.952;2023-05-27T12:23:54;2.40;;;1.43;;
13704;SDS011;6924;52.122;9.952;2023-05-27T12:26:22;2.97;;;1.80;;
13704;SDS011;6924;52.122;9.952;2023-05-27T12:28:49;4.13;;;1.77;;
13704;SDS011;6924;52.122;9.952;2023-05-27T12:31:15;3.40;;;1.67;;
13704;SDS011;6924;52.122;9.952;2023-05-27T12:33:42;2.67;;;1.63;;
13704;SDS011;6924;52.122;9.952;2023-05-27T12:36:09;2.87;;;1.80;;
13704;SDS011;6924;52.122;9.952;2023-05-27T12:38:36;3.97;;;1.67;;
13704;SDS011;6924;52.122;9.952;2023-05-27T12:41:02;2.07;;;1.30;;
13704;SDS011;6924;52.122;9.952;2023-05-27T12:43:30;2.43;;;1.10;;
13704;SDS011;6924;52.122;9.952;2023-05-27T12:45:57;5.40;;;1.30;;
13704;SDS011;6924;52.122;9.952;2023-05-27T12:48:24;1.93;;;1.40;;
13704;SDS011;6924;52.122;9.952;2023-05-27T12:50:50;5.23;;;2.20;;
13704;SDS011;6924;52.122;9.952;2023-05-27T12:53:17;5.13;;;1.60;;
13704;SDS011;6924;52.122;9.952;2023-05-27T12:55:43;2.07;;;1.20;;
13704;SDS011;6924;52.122;9.952;2023-05-27T12:58:10;2.97;;;1.53;;
13704;SDS011;6924;52.122;9.952;2023-05-27T13:00:38;4.83;;;2.10;;
13704;SDS011;6924;52.122;9.952;2023-05-27T13:03:05;3.23;;;1.80;;
13704;SDS011;6924;52.122;9.952;2023-05-27T13:05:31;2.57;;;1.83;;
13704;SDS011;6924;52.122;9.952;2023-05-27T13:07:58;2.50;;;1.50;;
13704;SDS011;6924;52.122;9.952;2023-05-27T13:10:26;3.93;;;1.83;;
13704;SDS011;6924;52.122;9.952;2023-05-27T13:12:53;3.63;;;1.37;;
13704;SDS011;6924;52.122;9.952;2023-05-27T13:15:20;2.03;;;1.40;;
13704;SDS011;6924;52.122;9.952;2023-05-27T13:17:50;3.57;;;1.77;;
13704;SDS011;6924;52.122;9.952;2023-05-27T13:20:18;2.93;;;1.87;;
13704;SDS011;6924;52.122;9.952;2023-05-27T13:22:46;1.83;;;1.10;;
13704;SDS011;6924;52.122;9.952;2023-05-27T13:25:13;2.27;;;1.20;;
13704;SDS011;6924;52.122;9.952;2023-05-27T13:27:39;4.60;;;1.87;;
13704;SDS011;6924;52.122;9.952;2023-05-27T13:30:09;4.17;;;2.00;;
13704;SDS011;6924;52.122;9.952;2023-05-27T13:32:37;4.23;;;1.33;;
13704;SDS011;6924;52.122;9.952;2023-05-27T13:35:05;2.63;;;1.43;;
13704;SDS011;6924;52.122;9.952;2023-05-27T13:37:32;3.67;;;1.67;;
13704;SDS011;6924;52.122;9.952;2023-05-27T13:39:59;4.50;;;1.93;;
13704;SDS011;6924;52.122;9.952;2023-05-27T13:42:25;4.47;;;1.70;;
13704;SDS011;6924;52.122;9.952;2023-05-27T13:44:52;2.10;;;1.37;;
13704;SDS011;6924;52.122;9.952;2023-05-27T13:47:18;2.07;;;1.50;;
13704;SDS011;6924;52.122;9.952;2023-05-27T13:49:44;2.43;;;1.70;;
13704;SDS011;6924;52.122;9.952;2023-05-27T13:52:12;2.53;;;1.20;;
13704;SDS011;6924;52.122;9.952;2023-05-27T13:54:39;1.47;;;1.33;;
13704;SDS011;6924;52.122;9.952;2023-05-27T13:57:05;1.53;;;1.30;;
13704;SDS011;6924;52.122;9.952;2023-05-27T13:59:32;2.30;;;1.60;;
13704;SDS011;6924;52.122;9.952;2023-05-27T14:01:58;3.47;;;1.37;;
13704;SDS011;6924;52.122;9.952;2023-05-27T14:04:30;1.93;;;1.73;;
13704;SDS011;6924;52.122;9.952;2023-05-27T14:06:56;3.63;;;1.43;;
13704;SDS011;6924;52.122;9.952;2023-05-27T14:09:24;2.23;;;1.30;;
13704;SDS011;6924;52.122;9.952;2023-05-27T14:11:51;2.57;;;1.53;;
13704;SDS011;6924;52.122;9.952;2023-05-27T14:14:17;3.73;;;1.40;;
13704;SDS011;6924;52.122;9.952;2023-05-27T14:16:44;1.37;;;1.17;;
13704;SDS011;6924;52.122;9.952;2023-05-27T14:19:10;3.33;;;1.63;;
13704;SDS011;6924;52.122;9.952;2023-05-27T14:21:37;4.13;;;1.50;;
13704;SDS011;6924;52.122;9.952;2023-05-27T14:24:03;1.93;;;1.33;;
13704;SDS011;6924;52.122;9.952;2023-05-27T14:26:31;2.40;;;1.40;;
13704;SDS011;6924;52.122;9.952;2023-05-27T14:28:58;3.53;;;1.73;;
13704;SDS011;6924;52.122;9.952;2023-05-27T14:31:24;2.10;;;1.20;;
13704;SDS011;6924;52.122;9.952;2023-05-27T14:33:50;3.10;;;1.77;;
13704;SDS011;6924;52.122;9.952;2023-05-27T14:36:17;1.53;;;1.30;;
13704;SDS011;6924;52.122;9.952;2023-05-27T14:38:43;3.63;;;1.60;;
13704;SDS011;6924;52.122;9.952;2023-05-27T14:41:10;3.37;;;1.30;;
13704;SDS011;6924;52.122;9.952;2023-05-27T14:43:37;4.47;;;1.40;;
13704;SDS011;6924;52.122;9.952;2023-05-27T14:46:04;3.37;;;1.93;;
13704;SDS011;6924;52.122;9.952;2023-05-27T14:48:30;4.23;;;1.63;;
13704;SDS011;6924;52.122;9.952;2023-05-27T14:50:57;2.87;;;1.67;;
13704;SDS011;6924;52.122;9.952;2023-05-27T14:53:24;1.80;;;1.37;;
13704;SDS011;6924;52.122;9.952;2023-05-27T14:55:50;2.87;;;1.43;;
13704;SDS011;6924;52.122;9.952;2023-05-27T14:58:17;2.50;;;1.40;;
13704;SDS011;6924;52.122;9.952;2023-05-27T15:00:44;1.30;;;1.20;;